レイキャビク/ケフラヴィーク の空港の天気 - METARとTAF

ケフラヴィーク国際空港 ( BIKF / KEF ) - アイスランド ケプラヴィーク
飛行場実況気象(Metar)
観測時間12/14 06:00 GMT (12/14 06:00 UTC)
風向・風速南南東 5m/s
視程10km以上
天気現象
少しの雲 雲底高度 550m
全天の4割程度の雲 雲底高度 820m
全天の8割程度の雲 雲底高度 1190m
気温4℃
湿度75%
気圧993hPa
METARBIKF 140600Z 16009KT 9999 FEW018 SCT027 BKN039 04/M00 Q0993
過去の天気等 Google飛行場航空写真 Wunderground天気予報

過去48時間のMETAR

飛行場予報(TAF)
発表時間: 12/14 04:49 GMT (12/14 04:49 UTC)
予報対象時間: 14日6時 GMT ~ 15日6時 GMT
風向・風速南 6m/s
視程10km以上
少しの雲 雲底高度 460m
全天の4割程度の雲 雲底高度 610m
全天の8割程度の雲 雲底高度 910m
14日9時 GMT ~ 14日12時 GMT に徐々に
風向・風速東南東 8m/s
14日14時 GMT ~ 14日17時 GMT に徐々に
風向・風速東南東 12m/s 瞬間風速 17m/s
天気現象弱い雨
14日18時 GMT ~ 15日6時 GMT に一時的に
視程5000m
天気現象
全天の8割程度の雲 雲底高度 460m
全天を覆う雲 雲底高度 790m
TAF BIKF 140449Z 1406/1506 18012KT 9999 FEW015 SCT020 BKN030 TX07/1423Z TN02/1409Z
BECMG 1409/1412 11015KT
BECMG 1414/1417 11024G34KT -RA
TEMPO 1418/1506 5000 RA BKN015 OVC026